Time;durP1;ratioP1;P1;durP2;ratioP2;P2;SDS_P1;SDS_P2;PMS_P1;PMS_P2;Temp;Humidity;BMP_temperature;BMP_pressure;BME280_temperature;BME280_humidity;BME280_pressure;Samples;Min_cycle;Max_cycle;Signal;HPM_P1;HPM_P2
2022/08/15 00:00:33;;;;;;;18.15;15.00;;;;;;;21.34;73.15;100134.25;4986016;28;20132;-84
2022/08/15 00:02:59;;;;;;;40.28;16.52;;;;;;;21.28;74.16;100126.38;5005624;28;20335;-86
2022/08/15 00:05:24;;;;;;;20.67;18.48;;;;;;;21.40;70.89;100143.25;5003946;28;20098;-82
2022/08/15 00:07:50;;;;;;;20.88;15.05;;;;;;;21.72;66.97;100138.88;5004961;28;21874;-84
2022/08/15 00:10:18;;;;;;;17.40;15.02;;;;;;;21.58;68.77;100130.56;5004501;28;20022;-84
2022/08/15 00:12:44;;;;;;;18.33;15.45;;;;;;;21.63;68.34;100126.91;5003702;28;20172;-85
2022/08/15 00:15:13;;;;;;;80.50;19.50;;;;;;;21.54;69.63;100130.38;5004680;28;20038;-84
2022/08/15 00:17:40;;;;;;;23.05;15.65;;;;;;;21.56;69.08;100132.81;5004724;28;20030;-85
2022/08/15 00:20:09;;;;;;;18.60;14.40;;;;;;;21.63;67.20;100152.53;5004330;28;20076;-83
2022/08/15 00:22:34;;;;;;;18.30;14.65;;;;;;;21.77;67.20;100146.22;5004703;28;20820;-85
2022/08/15 00:25:00;;;;;;;24.80;15.50;;;;;;;21.69;68.46;100144.97;5004332;28;20041;-83
2022/08/15 00:27:25;;;;;;;17.58;14.00;;;;;;;21.88;65.68;100154.00;5004391;28;20046;-83
2022/08/15 00:29:51;;;;;;;18.17;14.07;;;;;;;21.84;66.71;100143.88;5004405;28;20752;-83
2022/08/15 00:32:19;;;;;;;18.35;14.05;;;;;;;21.86;66.92;100123.16;5004576;28;20786;-83
2022/08/15 00:34:45;;;;;;;20.80;13.88;;;;;;;21.80;67.23;100140.09;5004108;28;20038;-83
2022/08/15 00:37:11;;;;;;;19.92;14.38;;;;;;;21.72;68.30;100139.69;4986377;28;20536;-85
2022/08/15 00:39:36;;;;;;;26.02;13.80;;;;;;;21.69;68.50;100133.94;4985763;28;20034;-86
2022/08/15 00:42:05;;;;;;;17.17;13.57;;;;;;;21.73;68.56;100146.00;5004371;28;20477;-87
2022/08/15 00:44:33;;;;;;;17.95;13.93;;;;;;;21.74;67.95;100131.91;5007761;28;20041;-85
2022/08/15 00:47:07;;;;;;;18.13;14.85;;;;;;;21.58;69.46;100136.06;5008591;28;20041;-86
2022/08/15 00:49:33;;;;;;;;;;;;;;;21.77;67.55;100141.50;4997930;28;20056;-84
2022/08/15 00:52:04;;;;;;;19.75;15.25;;;;;;;21.49;69.83;100148.91;5007609;28;19932;-85
2022/08/15 00:54:39;;;;;;;16.67;14.27;;;;;;;21.50;69.28;100148.59;5007818;28;20041;-86
2022/08/15 00:57:25;;;;;;;19.05;15.07;;;;;;;21.59;67.49;100149.53;5008109;28;20083;-83
2022/08/15 00:59:55;;;;;;;18.63;15.25;;;;;;;21.54;68.21;100135.03;5007979;28;20037;-85
2022/08/15 01:02:24;;;;;;;17.85;15.25;;;;;;;21.52;68.94;100140.03;5008345;28;20052;-85
2022/08/15 01:04:50;;;;;;;18.33;15.27;;;;;;;21.56;68.32;100152.09;5007852;28;20041;-87
2022/08/15 01:07:17;;;;;;;18.27;14.98;;;;;;;21.57;69.58;100148.25;5008286;28;20710;-83
2022/08/15 01:09:43;;;;;;;17.13;14.30;;;;;;;21.52;68.98;100134.50;4989222;28;20049;-88
2022/08/15 01:12:21;;;;;;;16.92;15.13;;;;;;;21.57;68.58;100131.69;4990083;28;20038;-86
2022/08/15 01:15:10;;;;;;;19.90;16.45;;;;;;;21.57;68.77;100131.69;5007764;28;20667;-86
2022/08/15 01:17:35;;;;;;;17.77;15.88;;;;;;;21.46;69.76;100127.44;5007620;28;20061;-85
2022/08/15 01:20:03;;;;;;;19.23;16.75;;;;;;;21.43;70.29;100123.34;5007579;28;20466;-86
2022/08/15 01:22:47;;;;;;;23.65;18.98;;;;;;;21.38;70.09;100118.75;5007318;28;20041;-84
2022/08/15 01:25:17;;;;;;;20.03;17.87;;;;;;;21.35;70.79;100116.63;5007464;28;20340;-82
2022/08/15 01:28:05;;;;;;;19.70;17.50;;;;;;;21.35;69.97;100108.34;5007569;28;20041;-82
2022/08/15 01:30:37;;;;;;;19.90;17.83;;;;;;;21.18;71.70;100121.88;5007137;28;20056;-84
2022/08/15 01:33:03;;;;;;;27.10;18.70;;;;;;;21.08;71.57;100137.44;5006710;28;20045;-84
2022/08/15 01:36:00;;;;;;;28.42;18.95;;;;;;;21.12;70.71;100134.06;5007445;28;20026;-86
2022/08/15 01:38:30;;;;;;;24.85;17.58;;;;;;;21.01;70.74;100126.00;5007093;28;20022;-86
2022/08/15 01:40:58;;;;;;;21.30;16.80;;;;;;;21.00;71.54;100107.81;5007307;28;20038;-86
2022/08/15 01:43:26;;;;;;;22.40;16.85;;;;;;;21.01;71.41;100120.47;5007519;28;20046;-88
2022/08/15 01:45:55;;;;;;;34.47;17.45;;;;;;;21.01;71.04;100114.97;4992352;28;20092;-86
2022/08/15 01:48:27;;;;;;;18.30;15.70;;;;;;;21.10;69.57;100117.84;5007212;28;20702;-85
2022/08/15 01:50:59;;;;;;;18.52;15.50;;;;;;;21.08;69.14;100111.84;5006902;28;20065;-88
2022/08/15 01:53:35;;;;;;;20.52;15.15;;;;;;;21.21;68.72;100113.00;4988120;28;20470;-87
2022/08/15 01:56:26;;;;;;;18.23;14.00;;;;;;;21.25;67.48;100112.06;5005331;28;20056;-85
2022/08/15 01:58:51;;;;;;;18.20;14.10;;;;;;;21.33;66.72;100109.75;4988324;28;20042;-85
2022/08/15 02:01:21;;;;;;;15.35;13.30;;;;;;;21.34;66.43;100119.69;5006889;28;20032;-84
2022/08/15 02:03:48;;;;;;;15.43;12.52;;;;;;;21.30;66.73;100116.69;5007314;28;20117;-87
2022/08/15 02:06:25;;;;;;;16.75;13.45;;;;;;;21.30;67.22;100116.69;5006998;28;20347;-85
2022/08/15 02:08:55;;;;;;;16.90;13.45;;;;;;;21.24;67.41;100128.91;5007240;28;20038;-86
2022/08/15 02:11:24;;;;;;;15.65;13.05;;;;;;;21.28;66.42;100138.22;5007436;28;20607;-84
2022/08/15 02:13:56;;;;;;;15.82;13.23;;;;;;;21.29;65.97;100139.84;4988312;28;20033;-83
2022/08/15 02:16:25;;;;;;;15.50;13.13;;;;;;;21.27;65.78;100141.25;5006822;28;20124;-83
2022/08/15 02:18:51;;;;;;;18.27;12.75;;;;;;;21.22;65.81;100144.94;5007346;28;20045;-84
2022/08/15 02:21:16;;;;;;;17.13;12.40;;;;;;;21.21;64.81;100137.78;5006137;28;20038;-86
2022/08/15 02:23:41;;;;;;;13.57;12.05;;;;;;;21.23;64.54;100139.13;5006616;28;20044;-86
2022/08/15 02:26:08;;;;;;;13.98;10.93;;;;;;;21.21;64.38;100140.53;4970284;28;20082;-84
2022/08/15 02:28:35;;;;;;;14.73;10.63;;;;;;;21.16;64.19;100140.63;5006121;28;20049;-84
2022/08/15 02:31:05;;;;;;;12.35;9.88;;;;;;;21.23;62.85;100150.13;5006091;28;20057;-84
2022/08/15 02:33:31;;;;;;;14.15;9.88;;;;;;;21.19;62.94;100138.09;5006237;28;20422;-85
2022/08/15 02:35:56;;;;;;;11.18;9.25;;;;;;;21.16;63.60;100132.34;5005707;28;20140;-87
2022/08/15 02:38:21;;;;;;;12.77;9.55;;;;;;;21.10;63.05;100131.63;5005933;28;20034;-86
2022/08/15 02:40:49;;;;;;;9.70;8.70;;;;;;;21.12;62.13;100136.81;5006615;28;20709;-87
2022/08/15 02:43:17;;;;;;;10.80;8.77;;;;;;;21.13;61.16;100138.47;4989714;28;20074;-87
2022/08/15 02:45:47;;;;;;;10.27;8.10;;;;;;;21.15;60.52;100136.25;5006567;28;20174;-83
2022/08/15 02:48:13;;;;;;;12.32;7.80;;;;;;;21.16;60.11;100141.44;5006995;28;20037;-85
2022/08/15 02:50:39;;;;;;;11.57;7.47;;;;;;;21.14;60.29;100140.13;5005961;28;20096;-83
2022/08/15 02:53:13;;;;;;;9.07;7.45;;;;;;;21.12;60.03;100136.81;5006438;28;20048;-85
2022/08/15 02:55:43;;;;;;;;;;;;;;;21.21;60.44;100140.53;5006575;28;20044;-84
2022/08/15 02:58:11;;;;;;;8.68;7.32;;;;;;;21.15;59.31;100144.50;5004073;28;19925;-86
2022/08/15 03:00:39;;;;;;;10.43;6.80;;;;;;;21.07;59.07;100141.28;5005687;28;20410;-86
2022/08/15 03:03:07;;;;;;;9.88;7.07;;;;;;;21.09;58.49;100135.47;5005732;28;20156;-82
2022/08/15 03:05:35;;;;;;;11.63;6.35;;;;;;;21.10;58.44;100148.16;5005490;28;20635;-83
2022/08/15 03:08:02;;;;;;;11.70;6.97;;;;;;;21.13;57.34;100146.72;5005589;28;20029;-85
2022/08/15 03:10:28;;;;;;;12.60;6.50;;;;;;;21.09;58.00;100149.25;5005355;28;20061;-82
2022/08/15 03:12:57;;;;;;;11.60;6.18;;;;;;;21.06;57.54;100144.34;5005749;28;20473;-85
2022/08/15 03:15:32;;;;;;;12.95;6.43;;;;;;;21.08;56.87;100139.38;5005774;28;20037;-87
2022/08/15 03:17:59;;;;;;;9.27;5.75;;;;;;;21.02;57.08;100138.63;4988161;28;20125;-87
2022/08/15 03:20:25;;;;;;;9.30;5.60;;;;;;;21.00;56.97;100123.53;5005411;28;20037;-86
2022/08/15 03:22:53;;;;;;;10.43;5.50;;;;;;;21.04;56.63;100135.59;5005045;28;20355;-84
2022/08/15 03:25:25;;;;;;;8.90;5.35;;;;;;;20.96;56.91;100128.81;5005120;28;20033;-85
2022/08/15 03:27:52;;;;;;;7.13;5.05;;;;;;;20.95;57.15;100138.19;5005582;28;20037;-85
2022/08/15 03:30:17;;;;;;;7.32;5.30;;;;;;;20.91;57.27;100142.66;5004592;28;20040;-82
2022/08/15 03:32:46;;;;;;;5.80;5.13;;;;;;;20.87;56.98;100134.16;5005153;28;20233;-85
2022/08/15 03:35:12;;;;;;;9.35;4.88;;;;;;;20.83;57.72;100144.13;5004940;28;20077;-83
2022/08/15 03:37:38;;;;;;;8.90;5.30;;;;;;;20.83;57.15;100141.38;4980165;28;20042;-86
2022/08/15 03:40:05;;;;;;;9.82;5.30;;;;;;;20.78;57.20;100152.50;4978449;28;20049;-84
2022/08/15 03:42:31;;;;;;;5.70;4.80;;;;;;;20.78;56.80;100157.16;5005376;28;20639;-82
2022/08/15 03:44:56;;;;;;;7.13;5.35;;;;;;;20.69;57.08;100149.56;4995751;28;20140;-84
2022/08/15 03:47:22;;;;;;;10.32;4.70;;;;;;;20.68;57.00;100144.34;5005466;28;20389;-85
2022/08/15 03:49:48;;;;;;;7.00;4.85;;;;;;;20.66;57.20;100150.13;5005445;28;20065;-86
2022/08/15 03:52:14;;;;;;;6.97;4.90;;;;;;;20.63;57.09;100147.16;5004641;28;20038;-84
2022/08/15 03:54:39;;;;;;;6.30;5.20;;;;;;;20.55;57.17;100129.38;5005470;28;20045;-89
2022/08/15 03:57:06;;;;;;;7.60;5.28;;;;;;;20.51;57.49;100131.09;5004693;28;20030;-86
2022/08/15 03:59:32;;;;;;;7.20;5.30;;;;;;;20.49;57.28;100130.56;4991209;28;20091;-83
2022/08/15 04:01:57;;;;;;;6.78;5.28;;;;;;;20.45;58.00;100137.78;4986543;28;20034;-84
2022/08/15 04:04:23;;;;;;;8.25;5.25;;;;;;;20.45;57.86;100140.53;5004853;28;20050;-85
2022/08/15 04:06:48;;;;;;;9.45;5.55;;;;;;;20.41;57.76;100141.13;5000865;28;20042;-86
2022/08/15 04:09:13;;;;;;;6.97;5.25;;;;;;;20.36;58.03;100152.19;5004174;28;20045;-82
2022/08/15 04:11:39;;;;;;;7.75;5.80;;;;;;;20.30;57.94;100161.59;5005349;28;21433;-84
2022/08/15 04:14:09;;;;;;;7.22;5.30;;;;;;;20.29;58.03;100160.00;5005335;28;20041;-83
2022/08/15 04:16:34;;;;;;;8.85;5.43;;;;;;;20.32;57.57;100162.16;5005477;28;20037;-84
2022/08/15 04:19:00;;;;;;;6.47;4.90;;;;;;;20.28;58.31;100155.59;5007545;28;20037;-85
2022/08/15 04:21:25;;;;;;;8.70;4.70;;;;;;;20.20;58.25;100151.56;5008952;28;20596;-86
2022/08/15 04:23:50;;;;;;;6.75;4.72;;;;;;;20.18;58.43;100159.28;4972258;28;20038;-85
2022/08/15 04:26:17;;;;;;;7.45;5.30;;;;;;;20.18;58.01;100158.44;5008797;28;20026;-87
2022/08/15 04:28:43;;;;;;;10.40;5.15;;;;;;;20.10;58.64;100153.59;5009642;28;20045;-86
2022/08/15 04:31:12;;;;;;;8.48;5.47;;;;;;;20.06;58.54;100165.19;5008237;28;20180;-83
2022/08/15 04:33:38;;;;;;;7.97;5.40;;;;;;;20.08;58.38;100175.91;5008272;28;20769;-86
2022/08/15 04:36:11;;;;;;;8.32;5.18;;;;;;;20.05;58.83;100171.00;5008959;28;20049;-81
2022/08/15 04:38:38;;;;;;;9.37;5.17;;;;;;;20.01;58.19;100170.75;5008270;28;20451;-86
2022/08/15 04:41:37;;;;;;;6.22;5.07;;;;;;;20.03;58.52;100173.19;5007659;28;20711;-86
2022/08/15 04:44:04;;;;;;;6.10;5.40;;;;;;;19.97;58.96;100172.44;5009001;28;20053;-85
2022/08/15 04:46:32;;;;;;;8.85;6.00;;;;;;;19.95;58.90;100180.16;5008253;28;20037;-85
2022/08/15 04:48:57;;;;;;;9.50;5.65;;;;;;;19.92;59.16;100166.19;5009178;28;20397;-86
2022/08/15 04:51:24;;;;;;;8.88;5.97;;;;;;;19.89;59.30;100159.34;5008296;28;20038;-86
2022/08/15 04:53:50;;;;;;;11.20;5.82;;;;;;;19.90;59.99;100166.47;4993726;28;20765;-85
2022/08/15 04:56:16;;;;;;;10.23;6.30;;;;;;;19.90;59.82;100174.72;4993722;28;20052;-86
2022/08/15 04:58:41;;;;;;;8.90;5.93;;;;;;;19.82;60.29;100167.09;5008291;28;20548;-87
2022/08/15 05:01:11;;;;;;;7.13;5.70;;;;;;;19.84;60.28;100170.38;5008447;28;20053;-87
2022/08/15 05:03:37;;;;;;;6.57;5.57;;;;;;;19.87;59.93;100167.88;4991667;28;20036;-84
2022/08/15 05:06:06;;;;;;;12.43;5.70;;;;;;;19.87;60.20;100170.63;5007188;28;20108;-84
2022/08/15 05:08:34;;;;;;;10.52;5.72;;;;;;;19.90;60.27;100174.72;5008199;28;20535;-87
2022/08/15 05:11:11;;;;;;;6.60;5.60;;;;;;;19.95;59.97;100176.59;5007957;28;20735;-83
2022/08/15 05:13:39;;;;;;;18.02;6.05;;;;;;;19.99;60.43;100178.47;4998151;28;20116;-85
2022/08/15 05:16:07;;;;;;;9.25;5.50;;;;;;;20.01;60.91;100176.25;5007891;28;20034;-83
2022/08/15 05:18:39;;;;;;;10.32;5.50;;;;;;;20.08;60.72;100176.69;5008270;28;20030;-86
2022/08/15 05:21:07;;;;;;;8.90;5.60;;;;;;;20.16;60.98;100186.25;5007280;28;20038;-85
2022/08/15 05:23:33;;;;;;;11.10;5.45;;;;;;;20.25;61.35;100191.94;5008529;28;20467;-86
2022/08/15 05:26:01;;;;;;;13.85;5.65;;;;;;;20.32;61.49;100188.84;4993022;28;20674;-84
2022/08/15 05:28:26;;;;;;;11.13;5.53;;;;;;;20.35;60.95;100185.50;5008018;28;20633;-85
2022/08/15 05:31:01;;;;;;;11.52;5.38;;;;;;;20.40;61.08;100178.00;5007462;28;20111;-86
2022/08/15 05:33:29;;;;;;;11.23;5.40;;;;;;;20.41;61.27;100176.88;5008383;28;20378;-86
2022/08/15 05:35:57;;;;;;;9.00;5.15;;;;;;;20.49;61.54;100188.34;5007523;28;20057;-86
2022/08/15 05:38:28;;;;;;;12.00;5.90;;;;;;;20.51;61.62;100194.38;5006169;28;20321;-87
2022/08/15 05:41:24;;;;;;;9.60;5.90;;;;;;;20.61;61.38;100193.44;5007771;28;20448;-85
2022/08/15 05:44:03;;;;;;;10.07;5.68;;;;;;;20.63;61.65;100194.78;5007946;28;20143;-86
2022/08/15 05:46:53;;;;;;;8.00;5.60;;;;;;;20.70;61.51;100189.75;5007275;28;20060;-87
2022/08/15 05:49:51;;;;;;;8.85;5.60;;;;;;;20.72;62.14;100208.72;5007045;28;20057;-84
2022/08/15 05:52:17;;;;;;;8.20;5.63;;;;;;;20.75;62.69;100199.88;5007672;28;20428;-86
2022/08/15 05:55:11;;;;;;;9.93;5.45;;;;;;;20.83;61.77;100215.72;5007390;28;20037;-84
2022/08/15 05:57:45;;;;;;;8.77;5.63;;;;;;;20.82;62.48;100196.75;5006184;28;20037;-82
2022/08/15 06:00:13;;;;;;;12.07;5.55;;;;;;;20.81;62.71;100201.44;5007058;28;20545;-84
2022/08/15 06:02:47;;;;;;;9.48;5.10;;;;;;;20.84;62.95;100213.81;5006179;28;20620;-83
2022/08/15 06:05:28;;;;;;;9.02;4.95;;;;;;;20.87;63.13;100207.69;5006754;28;20030;-83
2022/08/15 06:07:56;;;;;;;9.73;5.35;;;;;;;20.87;63.24;100208.50;5006749;28;20417;-82
2022/08/15 06:10:36;;;;;;;12.88;5.00;;;;;;;20.92;63.09;100211.19;5005977;28;20076;-83
2022/08/15 06:13:10;;;;;;;8.43;4.93;;;;;;;20.92;63.66;100202.13;5006074;28;20041;-85
2022/08/15 06:15:47;;;;;;;9.48;5.60;;;;;;;20.91;64.07;100209.53;5006658;28;20056;-85
2022/08/15 06:18:15;;;;;;;8.13;5.30;;;;;;;20.94;64.14;100210.09;5006686;28;20041;-83
2022/08/15 06:21:03;;;;;;;7.93;5.45;;;;;;;20.98;63.63;100211.94;5006804;28;20546;-85
2022/08/15 06:23:45;;;;;;;12.65;5.82;;;;;;;21.03;63.84;100219.31;5006864;28;20096;-84
2022/08/15 06:26:36;;;;;;;8.02;5.15;;;;;;;21.04;64.63;100216.25;5005664;28;20495;-83
2022/08/15 06:29:14;;;;;;;10.50;5.50;;;;;;;21.12;64.44;100219.47;5006133;28;20044;-82
2022/08/15 06:32:09;;;;;;;10.32;5.50;;;;;;;21.13;64.86;100221.09;5004774;28;20046;-82
2022/08/15 06:35:01;;;;;;;10.35;5.65;;;;;;;21.19;64.76;100217.16;5002227;28;20126;-86
2022/08/15 06:37:42;;;;;;;7.57;5.30;;;;;;;21.24;64.79;100220.66;5005807;28;20084;-81
2022/08/15 06:40:15;;;;;;;8.80;5.22;;;;;;;21.31;64.74;100217.53;5004698;28;20037;-83
2022/08/15 06:42:44;;;;;;;9.20;5.78;;;;;;;21.35;65.66;100220.47;5005992;28;20117;-82
2022/08/15 06:45:21;;;;;;;9.88;5.78;;;;;;;21.39;65.32;100213.25;5005841;28;20030;-86
2022/08/15 06:47:48;;;;;;;10.18;5.82;;;;;;;21.38;65.20;100219.91;5005554;28;20481;-84
2022/08/15 06:50:21;;;;;;;8.75;5.82;;;;;;;21.42;65.42;100229.22;4988185;28;20034;-84
2022/08/15 06:52:58;;;;;;;9.95;5.80;;;;;;;21.48;65.40;100241.78;5004917;28;20038;-83
2022/08/15 06:55:32;;;;;;;9.35;6.35;;;;;;;21.49;65.53;100234.34;5005108;28;20561;-83
2022/08/15 06:58:09;;;;;;;13.32;6.32;;;;;;;21.53;65.59;100238.16;5005268;28;20046;-85
2022/08/15 07:00:49;;;;;;;12.60;6.35;;;;;;;21.54;65.47;100231.50;4985405;28;20130;-86
2022/08/15 07:03:23;;;;;;;9.88;6.50;;;;;;;21.55;65.21;100235.91;5005760;28;20650;-82
2022/08/15 07:05:55;;;;;;;10.73;6.75;;;;;;;21.58;66.14;100229.78;5005843;28;20034;-84
2022/08/15 07:08:32;;;;;;;11.10;6.40;;;;;;;21.61;65.41;100228.38;5004962;28;20053;-81
2022/08/15 07:11:16;;;;;;;9.50;6.70;;;;;;;21.69;65.65;100227.69;4987417;28;20044;-82
2022/08/15 07:14:04;;;;;;;10.25;6.72;;;;;;;21.68;65.34;100217.78;4990662;28;20034;-85
2022/08/15 07:16:48;;;;;;;8.57;6.38;;;;;;;21.69;65.84;100211.13;5004892;28;20036;-86
2022/08/15 07:19:14;;;;;;;11.05;6.80;;;;;;;21.74;65.94;100213.81;5005256;28;20077;-83
2022/08/15 07:21:40;;;;;;;10.10;6.25;;;;;;;21.82;66.16;100215.88;5004656;28;20033;-83
2022/08/15 07:24:18;;;;;;;12.45;6.53;;;;;;;21.90;65.23;100223.44;4987970;28;20389;-84
2022/08/15 07:26:51;;;;;;;11.10;6.35;;;;;;;21.98;65.86;100216.41;5004440;28;20413;-81
2022/08/15 07:29:29;;;;;;;10.43;6.45;;;;;;;22.08;64.74;100227.25;5004221;28;21393;-84
2022/08/15 07:32:25;;;;;;;10.18;6.10;;;;;;;22.15;65.02;100215.00;5005076;28;20076;-81
2022/08/15 07:34:57;;;;;;;10.10;6.70;;;;;;;22.25;64.89;100210.13;5004117;28;20037;-83
2022/08/15 07:37:23;;;;;;;9.80;6.72;;;;;;;22.25;65.32;100212.06;5004700;28;20120;-85
2022/08/15 07:40:23;;;;;;;11.43;6.75;;;;;;;22.40;65.02;100220.06;5004968;28;20045;-85
2022/08/15 07:42:48;;;;;;;10.55;6.93;;;;;;;22.38;65.50;100210.44;4996520;28;20187;-86
2022/08/15 07:45:20;;;;;;;11.30;7.13;;;;;;;22.39;65.20;100210.13;5004739;28;20424;-85
2022/08/15 07:48:01;;;;;;;12.10;7.30;;;;;;;22.47;65.36;100218.84;5004441;28;20153;-82
2022/08/15 07:50:38;;;;;;;13.63;7.60;;;;;;;22.49;65.28;100233.94;5004140;28;20034;-82
2022/08/15 07:53:18;;;;;;;12.48;7.10;;;;;;;22.48;65.39;100228.75;5004586;28;20547;-82
2022/08/15 07:56:04;;;;;;;11.88;7.50;;;;;;;22.53;65.23;100239.69;5004498;28;20041;-82
2022/08/15 07:58:32;;;;;;;10.93;7.22;;;;;;;22.52;65.61;100243.56;5004929;28;20232;-81
2022/08/15 08:01:29;;;;;;;11.52;7.03;;;;;;;22.58;65.76;100242.34;5004323;28;20069;-84
2022/08/15 08:04:00;;;;;;;11.82;7.65;;;;;;;22.60;65.67;100240.06;5004631;28;20037;-85
2022/08/15 08:06:36;;;;;;;12.25;7.22;;;;;;;22.71;65.61;100241.53;5004704;28;20030;-83
2022/08/15 08:09:24;;;;;;;11.63;7.28;;;;;;;22.74;65.84;100240.09;5004816;28;20042;-81
2022/08/15 08:11:54;;;;;;;8.30;7.32;;;;;;;22.87;64.96;100232.91;5004273;28;20033;-85
2022/08/15 08:14:50;;;;;;;12.20;7.72;;;;;;;23.03;64.91;100236.16;5003881;28;20617;-83
2022/08/15 08:17:27;;;;;;;12.82;8.38;;;;;;;23.32;64.30;100233.00;5004714;28;20042;-87
2022/08/15 08:20:08;;;;;;;14.13;8.90;;;;;;;23.61;62.96;100240.06;5000661;28;21796;-82
2022/08/15 08:22:53;;;;;;;12.05;7.45;;;;;;;23.83;62.40;100233.69;5001900;28;20088;-86
2022/08/15 08:25:27;;;;;;;15.60;9.27;;;;;;;23.87;61.42;100244.94;5001708;28;20055;-86
2022/08/15 08:27:59;;;;;;;13.48;8.98;;;;;;;23.89;61.04;100251.00;5000387;28;20040;-86
2022/08/15 08:30:30;;;;;;;13.50;8.40;;;;;;;23.90;61.86;100252.63;5001029;28;20037;-86
2022/08/15 08:33:12;;;;;;;12.55;8.20;;;;;;;23.91;61.81;100257.84;5000950;28;20132;-84
2022/08/15 08:35:54;;;;;;;15.00;8.70;;;;;;;23.92;61.38;100256.72;4982697;28;20025;-81
2022/08/15 08:38:29;;;;;;;14.70;8.25;;;;;;;23.83;61.03;100255.00;5000725;28;20026;-84
2022/08/15 08:44:02;;;;;;;12.88;8.15;;;;;;;23.82;61.30;100250.59;5001398;28;20107;-84
2022/08/15 08:46:37;;;;;;;;;;;;;;;23.91;60.50;100245.97;5002223;28;20095;-82
2022/08/15 08:49:18;;;;;;;12.52;7.82;;;;;;;23.67;61.37;100244.31;5000149;28;20027;-82
2022/08/15 08:51:57;;;;;;;12.20;7.40;;;;;;;23.58;61.40;100252.56;5000753;28;20437;-82
2022/08/15 08:54:57;;;;;;;10.63;7.25;;;;;;;23.58;61.69;100251.72;5000487;28;20117;-85
2022/08/15 08:57:28;;;;;;;15.02;7.80;;;;;;;23.53;61.99;100252.69;5001025;28;20034;-81
2022/08/15 09:00:05;;;;;;;11.90;7.43;;;;;;;23.53;62.29;100246.34;5000659;28;20040;-80
2022/08/15 09:02:45;;;;;;;13.35;6.65;;;;;;;23.51;61.67;100249.41;5000527;28;20034;-82
2022/08/15 09:05:26;;;;;;;10.90;6.80;;;;;;;23.45;62.51;100258.16;4998616;28;20096;-82
2022/08/15 09:07:58;;;;;;;15.20;6.93;;;;;;;23.31;62.39;100247.97;5007203;28;20137;-85
2022/08/15 09:10:32;;;;;;;13.07;6.97;;;;;;;23.31;62.57;100259.03;5007722;28;20032;-83
2022/08/15 09:15:48;;;;;;;9.85;6.88;;;;;;;23.29;63.11;100258.50;5007807;28;20080;-81
2022/08/15 09:18:24;;;;;;;14.48;7.15;;;;;;;23.29;62.88;100258.50;5006996;28;20033;-83
2022/08/15 09:20:49;;;;;;;21.15;7.47;;;;;;;23.24;63.34;100253.94;5007492;28;20037;-83
2022/08/15 09:23:15;;;;;;;13.77;7.30;;;;;;;23.25;63.98;100257.50;5007623;28;20037;-86
2022/08/15 09:26:04;;;;;;;11.73;7.50;;;;;;;23.26;63.72;100257.19;4964497;28;20038;-85
2022/08/15 09:28:37;;;;;;;12.20;6.93;;;;;;;23.20;63.66;100263.97;5007220;28;20029;-83
2022/08/15 09:31:17;;;;;;;9.60;6.95;;;;;;;23.22;64.13;100255.38;5006600;28;20050;-84
2022/08/15 09:34:13;;;;;;;13.38;7.35;;;;;;;23.19;64.54;100262.31;5007044;28;20406;-84
2022/08/15 09:36:57;;;;;;;12.65;8.05;;;;;;;23.15;65.06;100263.28;5007918;28;20092;-83
2022/08/15 09:39:43;;;;;;;10.75;6.80;;;;;;;23.16;65.38;100262.13;5003981;28;20048;-84
2022/08/15 09:42:30;;;;;;;12.57;7.25;;;;;;;23.24;66.72;100258.63;5006859;28;20044;-83
2022/08/15 09:45:32;;;;;;;13.38;7.50;;;;;;;23.26;65.93;100267.44;5007201;28;20037;-82
2022/08/15 09:48:30;;;;;;;13.88;7.43;;;;;;;23.25;65.58;100260.25;5006727;28;20041;-84
2022/08/15 09:50:57;;;;;;;11.82;7.40;;;;;;;23.22;64.76;100260.88;5007061;28;20042;-87
2022/08/15 09:53:54;;;;;;;10.10;7.03;;;;;;;23.34;64.74;100252.88;5006732;28;20545;-88
2022/08/15 09:56:22;;;;;;;12.23;7.25;;;;;;;23.29;65.06;100260.47;5006704;28;20037;-84
2022/08/15 09:59:19;;;;;;;12.88;7.75;;;;;;;23.43;64.47;100262.06;5006850;28;21044;-86
2022/08/15 10:01:58;;;;;;;11.80;7.95;;;;;;;23.45;64.28;100263.69;4987974;28;20053;-85
2022/08/15 10:04:50;;;;;;;20.25;8.13;;;;;;;23.57;63.52;100275.00;4988504;28;20577;-84
2022/08/15 10:07:15;;;;;;;10.35;7.32;;;;;;;23.65;63.37;100278.94;4970021;28;20061;-83
2022/08/15 10:10:04;;;;;;;11.05;7.97;;;;;;;23.77;63.93;100270.91;5007231;28;20469;-86
2022/08/15 10:12:31;;;;;;;11.98;7.68;;;;;;;23.83;63.00;100266.09;4989781;28;20037;-85
2022/08/15 10:15:01;;;;;;;11.93;8.00;;;;;;;23.91;62.75;100271.69;4991106;28;20605;-82
2022/08/15 10:17:34;;;;;;;10.57;7.15;;;;;;;24.04;63.30;100261.66;5006378;28;20543;-83
2022/08/15 10:20:15;;;;;;;16.53;7.70;;;;;;;24.24;62.70;100268.59;5006545;28;20037;-82
2022/08/15 10:22:50;;;;;;;15.93;7.55;;;;;;;24.28;62.14;100266.81;4989549;28;20037;-81
2022/08/15 10:25:18;;;;;;;12.30;7.60;;;;;;;24.27;61.33;100265.22;5005787;28;20034;-82
2022/08/15 10:28:08;;;;;;;13.18;7.30;;;;;;;24.42;61.48;100257.59;4988155;28;20038;-82
2022/08/15 10:30:37;;;;;;;10.02;6.60;;;;;;;24.39;60.83;100267.38;5005697;28;20151;-81
2022/08/15 10:33:48;;;;;;;11.27;6.30;;;;;;;24.64;61.33;100267.00;5005474;28;21403;-85
2022/08/15 10:36:16;;;;;;;10.93;7.07;;;;;;;24.55;60.25;100272.50;4899789;29;20043;-82
2022/08/15 10:38:45;;;;;;;11.05;6.30;;;;;;;24.59;60.25;100276.25;4915152;29;20043;-81
2022/08/15 10:41:31;;;;;;;9.30;6.80;;;;;;;24.67;60.10;100269.97;4943729;28;20045;-80
2022/08/15 10:44:29;;;;;;;9.63;7.05;;;;;;;24.69;60.01;100275.97;5002755;28;20500;-81
2022/08/15 10:47:22;;;;;;;11.57;6.22;;;;;;;24.63;60.03;100276.44;5002403;28;20056;-84
2022/08/15 10:49:53;;;;;;;11.90;6.75;;;;;;;24.56;59.46;100279.66;5002382;28;20059;-86
2022/08/15 10:52:19;;;;;;;10.52;6.68;;;;;;;24.51;59.76;100280.63;5002560;28;20049;-83
2022/08/15 10:54:47;;;;;;;18.08;6.68;;;;;;;24.42;59.74;100280.59;5002731;28;20350;-85
2022/08/15 10:57:18;;;;;;;10.70;6.35;;;;;;;24.33;60.26;100276.13;5002126;28;20113;-84
2022/08/15 10:59:48;;;;;;;9.95;6.35;;;;;;;24.24;60.63;100284.41;5002161;28;20037;-87
2022/08/15 11:02:21;;;;;;;8.38;6.03;;;;;;;24.23;60.86;100282.75;5002132;28;20038;-84
2022/08/15 11:04:48;;;;;;;10.73;6.55;;;;;;;24.10;61.03;100285.31;5001434;28;20046;-85
2022/08/15 11:07:47;;;;;;;9.05;6.40;;;;;;;24.21;61.31;100288.63;5001659;28;20069;-80
2022/08/15 11:10:16;;;;;;;9.27;6.00;;;;;;;24.04;61.49;100289.31;5002169;28;20752;-84
2022/08/15 11:12:45;;;;;;;9.70;6.38;;;;;;;23.92;61.37;100287.16;5003865;28;20041;-79
2022/08/15 11:15:19;;;;;;;12.60;6.70;;;;;;;23.91;61.39;100284.72;5005243;28;20485;-86
2022/08/15 11:17:50;;;;;;;12.38;6.47;;;;;;;23.86;61.74;100291.13;5005191;28;20103;-83
2022/08/15 11:20:22;;;;;;;11.63;5.97;;;;;;;23.86;61.77;100293.09;5005193;28;20389;-80
2022/08/15 11:22:53;;;;;;;9.05;5.82;;;;;;;23.86;61.94;100290.34;5005037;28;20132;-84
2022/08/15 11:25:32;;;;;;;13.20;6.70;;;;;;;23.85;61.51;100288.69;5005133;28;20087;-84
2022/08/15 11:28:20;;;;;;;9.75;6.28;;;;;;;23.88;62.03;100288.94;5004568;28;20040;-82
2022/08/15 11:30:46;;;;;;;10.80;5.95;;;;;;;23.93;62.07;100296.25;5004311;28;20055;-82
2022/08/15 11:33:24;;;;;;;10.85;5.80;;;;;;;23.99;62.07;100295.00;5004941;28;20079;-82
2022/08/15 11:36:07;;;;;;;10.88;6.10;;;;;;;24.04;61.18;100303.16;4989453;28;20104;-82
2022/08/15 11:38:36;;;;;;;10.00;6.15;;;;;;;24.05;60.80;100302.03;5005224;28;20033;-79
2022/08/15 11:41:02;;;;;;;10.98;6.40;;;;;;;24.08;61.39;100300.59;5003946;28;20041;-79
2022/08/15 11:43:29;;;;;;;12.55;6.00;;;;;;;24.03;60.91;100298.78;5005357;28;20413;-83
2022/08/15 11:45:56;;;;;;;9.63;5.90;;;;;;;24.12;61.01;100296.06;5005004;28;20045;-80
2022/08/15 11:48:33;;;;;;;11.25;6.28;;;;;;;24.17;61.10;100307.00;5004321;28;20038;-83
2022/08/15 11:51:14;;;;;;;12.07;6.50;;;;;;;24.25;60.80;100295.16;5004849;28;20044;-81
2022/08/15 11:54:00;;;;;;;10.45;6.10;;;;;;;24.34;60.99;100294.38;5004877;28;20044;-83